createdAt,value
2024-02-26T06:24:45.170Z,5.80
2024-02-26T06:27:17.028Z,5.80
2024-02-26T06:29:48.960Z,5.80
2024-02-26T06:32:22.065Z,5.80
2024-02-26T06:34:53.956Z,5.80
2024-02-26T06:37:25.809Z,6.30
2024-02-26T06:39:57.652Z,5.80
2024-02-26T06:42:29.425Z,6.60
2024-02-26T06:45:01.391Z,5.80
2024-02-26T06:47:34.626Z,5.90
2024-02-26T06:52:38.843Z,5.50
2024-02-26T06:55:10.579Z,5.80
2024-02-26T06:57:42.482Z,5.80
2024-02-26T07:00:15.461Z,5.70
2024-02-26T07:05:20.750Z,5.80
2024-02-26T07:07:52.465Z,5.80
2024-02-26T07:10:24.258Z,5.70
2024-02-26T07:12:56.020Z,5.80
2024-02-26T07:18:01.471Z,5.80
2024-02-26T07:20:33.334Z,5.80
2024-02-26T07:23:05.303Z,5.80
2024-02-26T07:25:37.056Z,5.40
2024-02-26T07:30:40.914Z,5.80
2024-02-26T07:33:14.168Z,5.90
2024-02-26T07:35:46.139Z,5.80
2024-02-26T07:38:27.538Z,6.00
2024-02-26T07:41:04.389Z,5.90
2024-02-26T07:43:36.133Z,5.90
2024-02-26T07:46:07.945Z,5.90
2024-02-26T07:48:41.254Z,5.90
2024-02-26T07:51:13.726Z,5.80
2024-02-26T07:53:45.604Z,5.80
2024-02-26T07:56:17.393Z,5.80
2024-02-26T07:58:49.142Z,5.80
2024-02-26T08:01:21.019Z,5.80
2024-02-26T08:03:54.359Z,5.80
2024-02-26T08:06:26.337Z,5.80
2024-02-26T08:08:58.210Z,5.80
2024-02-26T08:11:30.082Z,5.80
2024-02-26T08:14:01.965Z,5.90
2024-02-26T08:16:35.612Z,5.90
2024-02-26T08:19:10.348Z,5.90
2024-02-26T08:24:14.225Z,5.90
2024-02-26T08:26:46.018Z,5.90
2024-02-26T08:29:17.787Z,5.90
2024-02-26T08:31:49.520Z,6.00
2024-02-26T08:34:22.731Z,5.90
2024-02-26T08:36:54.569Z,6.10
2024-02-26T08:39:26.333Z,6.10
2024-02-26T08:41:58.139Z,5.90
2024-02-26T08:44:29.895Z,5.90
2024-02-26T08:47:01.633Z,5.90
2024-02-26T08:49:34.797Z,5.90
2024-02-26T08:52:06.945Z,6.00
2024-02-26T08:54:38.793Z,5.90
2024-02-26T08:57:10.767Z,6.00
2024-02-26T08:59:42.563Z,6.00
2024-02-26T09:02:14.440Z,6.00
2024-02-26T09:04:47.589Z,6.00
2024-02-26T09:07:19.644Z,6.00
2024-02-26T09:09:51.465Z,6.00
2024-02-26T09:12:23.361Z,6.00
2024-02-26T09:14:55.182Z,6.00
2024-02-26T09:17:27.011Z,6.00
2024-02-26T09:20:00.154Z,6.00
2024-02-26T09:22:31.893Z,6.00
2024-02-26T09:25:04.028Z,6.00
2024-02-26T09:27:35.834Z,6.00
2024-02-26T09:30:08.594Z,6.00
2024-02-26T09:32:40.473Z,5.90
2024-02-26T09:35:13.672Z,5.90
2024-02-26T09:37:45.498Z,6.00
2024-02-26T09:40:17.419Z,5.90
2024-02-26T09:42:49.147Z,5.90
2024-02-26T09:45:21.639Z,5.90
2024-02-26T09:47:53.588Z,5.90
2024-02-26T09:52:59.023Z,5.90
2024-02-26T09:55:30.821Z,5.90
2024-02-26T09:58:02.664Z,5.90
2024-02-26T10:00:35.264Z,5.90
2024-02-26T10:05:41.146Z,5.90
2024-02-26T10:08:13.142Z,5.90
2024-02-26T10:10:44.879Z,5.90
2024-02-26T10:15:48.741Z,6.00
2024-02-26T10:18:20.751Z,6.00
2024-02-26T10:21:03.453Z,6.00
2024-02-26T10:23:35.211Z,6.00
2024-02-26T10:26:06.908Z,6.00
2024-02-26T10:31:11.091Z,6.10
2024-02-26T10:33:44.299Z,6.10
2024-02-26T10:36:17.762Z,6.20
2024-02-26T10:38:49.630Z,6.20
2024-02-26T10:41:21.510Z,6.20
2024-02-26T10:43:53.267Z,6.20
2024-02-26T10:46:26.061Z,6.50
2024-02-26T10:48:58.035Z,6.50
2024-02-26T10:51:31.794Z,6.60
2024-02-26T10:54:03.712Z,6.60
2024-02-26T10:56:35.729Z,6.60
2024-02-26T10:59:07.697Z,6.50
2024-02-26T11:01:39.589Z,6.50
2024-02-26T11:04:11.368Z,6.40
2024-02-26T11:06:44.694Z,6.60
2024-02-26T11:09:16.650Z,6.70
2024-02-26T11:11:49.703Z,6.70
2024-02-26T11:14:21.532Z,6.60
2024-02-26T11:16:53.234Z,6.60
2024-02-26T11:19:25.367Z,6.60
2024-02-26T11:22:01.711Z,6.60
2024-02-26T11:24:35.414Z,6.60
2024-02-26T11:27:07.155Z,6.60
2024-02-26T11:29:41.356Z,6.70
2024-02-26T11:32:13.080Z,6.80
2024-02-26T11:34:44.817Z,6.80
2024-02-26T11:37:18.250Z,6.80
2024-02-26T11:39:49.965Z,7.30
2024-02-26T11:42:24.483Z,6.10
2024-02-26T11:44:56.211Z,6.80
2024-02-26T11:47:28.452Z,6.80
2024-02-26T11:50:00.285Z,6.80
2024-02-26T11:52:33.500Z,6.80
2024-02-26T11:55:06.195Z,6.80
2024-02-26T11:57:39.977Z,6.70
2024-02-26T12:00:12.824Z,6.70
2024-02-26T12:05:22.020Z,6.80
2024-02-26T12:07:55.946Z,6.80
2024-02-26T12:13:00.538Z,6.80
2024-02-26T12:15:32.854Z,6.90
2024-02-26T12:18:06.181Z,6.90
2024-02-26T12:23:15.248Z,6.90
2024-02-26T12:25:46.936Z,6.90
2024-02-26T12:28:18.655Z,7.00
2024-02-26T12:33:22.785Z,7.00
2024-02-26T12:35:54.582Z,6.90
2024-02-26T12:38:27.677Z,6.90
2024-02-26T12:40:59.421Z,6.90
2024-02-26T12:43:31.117Z,6.90
2024-02-26T12:46:04.387Z,6.90
2024-02-26T12:48:36.349Z,6.90
2024-02-26T12:51:08.242Z,6.90
2024-02-26T12:53:41.504Z,6.90
2024-02-26T12:56:13.228Z,6.80
2024-02-26T12:58:44.957Z,6.80
2024-02-26T13:01:17.641Z,6.80
2024-02-26T13:03:49.478Z,6.90
2024-02-26T13:06:21.460Z,6.90
2024-02-26T13:08:58.582Z,6.90
2024-02-26T13:11:30.374Z,7.00
2024-02-26T13:14:03.768Z,7.00
2024-02-26T13:16:36.566Z,7.00
2024-02-26T13:19:11.203Z,7.10
2024-02-26T13:21:42.967Z,7.10
2024-02-26T13:24:16.058Z,7.10
2024-02-26T13:26:47.807Z,7.10
2024-02-26T13:29:19.843Z,7.10
2024-02-26T13:31:55.760Z,7.10
2024-02-26T13:34:28.465Z,7.20
2024-02-26T13:37:00.336Z,7.20
2024-02-26T13:39:33.489Z,7.20
2024-02-26T13:42:05.785Z,7.20
2024-02-26T13:44:37.521Z,7.30
2024-02-26T13:47:09.257Z,7.30
2024-02-26T13:49:40.966Z,7.30
2024-02-26T13:52:12.766Z,7.30
2024-02-26T13:54:45.818Z,7.30
2024-02-26T13:57:17.578Z,7.30
2024-02-26T14:02:21.636Z,7.30
2024-02-26T14:04:53.329Z,7.30
2024-02-26T14:07:25.197Z,7.20
2024-02-26T14:09:58.444Z,7.20
2024-02-26T14:12:30.245Z,7.30
2024-02-26T14:15:02.106Z,7.30
2024-02-26T14:17:33.855Z,7.30
2024-02-26T14:20:06.983Z,7.20
2024-02-26T14:22:38.724Z,7.20
2024-02-26T14:25:11.778Z,7.20
2024-02-26T14:27:43.458Z,7.20
2024-02-26T14:30:15.680Z,7.20
2024-02-26T14:32:47.631Z,7.20
2024-02-26T14:35:19.430Z,7.20
2024-02-26T14:37:51.152Z,7.30
2024-02-26T14:42:56.270Z,7.40
2024-02-26T14:45:27.990Z,7.40
2024-02-26T14:47:59.809Z,7.30
2024-02-26T14:50:31.531Z,7.30
2024-02-26T14:53:03.257Z,7.30
2024-02-26T14:55:37.372Z,7.30
2024-02-26T14:58:10.578Z,7.30
2024-02-26T15:00:42.308Z,7.30
2024-02-26T15:03:14.169Z,7.40
2024-02-26T15:05:45.890Z,7.40
2024-02-26T15:08:17.591Z,7.50
2024-02-26T15:10:50.703Z,7.60
2024-02-26T15:13:22.443Z,7.50
2024-02-26T15:15:54.146Z,7.50
2024-02-26T15:18:26.014Z,7.50
2024-02-26T15:20:57.809Z,7.50
2024-02-26T15:23:29.531Z,7.40
2024-02-26T15:26:02.685Z,7.40
2024-02-26T15:28:34.426Z,7.30
2024-02-26T15:31:06.129Z,7.30
2024-02-26T15:33:37.981Z,7.30
2024-02-26T15:36:10.008Z,7.30
2024-02-26T15:38:41.718Z,7.30
2024-02-26T15:41:15.000Z,7.30
2024-02-26T15:43:46.786Z,7.30
2024-02-26T15:46:18.546Z,7.30
2024-02-26T15:48:50.394Z,7.30
2024-02-26T15:51:22.754Z,7.30
2024-02-26T15:53:54.778Z,7.40
2024-02-26T15:56:28.076Z,7.40
2024-02-26T15:58:59.791Z,7.40
2024-02-26T16:01:32.496Z,7.40
2024-02-26T16:04:04.791Z,7.40
2024-02-26T16:06:38.838Z,7.40
2024-02-26T16:09:10.711Z,7.40
2024-02-26T16:11:43.816Z,7.40
2024-02-26T16:14:21.027Z,7.40
2024-02-26T16:16:55.680Z,7.40
2024-02-26T16:19:27.470Z,7.40
2024-02-26T16:21:59.253Z,7.40
2024-02-26T16:24:31.061Z,7.40
2024-02-26T16:27:04.542Z,7.40
2024-02-26T16:29:37.039Z,7.40
2024-02-26T16:32:08.736Z,7.40
2024-02-26T16:34:40.580Z,7.50
2024-02-26T16:37:12.897Z,7.50
2024-02-26T16:39:44.642Z,7.40
2024-02-26T16:42:17.726Z,7.40
2024-02-26T16:44:49.503Z,7.50
2024-02-26T16:47:21.240Z,7.50
2024-02-26T16:49:52.988Z,7.50
2024-02-26T16:52:24.722Z,7.50
2024-02-26T16:54:56.510Z,7.40
2024-02-26T16:57:29.596Z,7.40
2024-02-26T17:00:02.044Z,7.40
2024-02-26T17:02:33.758Z,7.30
2024-02-26T17:05:06.065Z,7.30
2024-02-26T17:07:37.773Z,7.30
2024-02-26T17:10:09.700Z,7.30
2024-02-26T17:12:42.765Z,7.30
2024-02-26T17:15:14.640Z,7.40
2024-02-26T17:17:46.443Z,7.30
2024-02-26T17:20:18.387Z,7.30
2024-02-26T17:22:50.118Z,7.20
2024-02-26T17:25:21.812Z,7.20
2024-02-26T17:27:54.939Z,7.20
2024-02-26T17:30:26.796Z,7.20
2024-02-26T17:32:58.773Z,7.20
2024-02-26T17:35:30.543Z,7.20
2024-02-26T17:38:02.302Z,7.10
2024-02-26T17:40:34.047Z,7.10
2024-02-26T17:43:07.134Z,7.10
2024-02-26T17:45:38.862Z,7.00
2024-02-26T17:48:10.798Z,7.00
2024-02-26T17:50:42.908Z,7.00
2024-02-26T17:53:14.691Z,6.90
2024-02-26T17:55:46.580Z,6.90
2024-02-26T17:58:19.651Z,6.90
2024-02-26T18:00:51.426Z,6.90
2024-02-26T18:03:23.192Z,6.90
2024-02-26T18:05:55.027Z,6.90
2024-02-26T18:08:26.780Z,6.90
2024-02-26T18:10:58.573Z,6.90
2024-02-26T18:13:31.649Z,6.90
2024-02-26T18:16:03.603Z,6.90
2024-02-26T18:18:35.445Z,6.90
2024-02-26T18:21:07.307Z,6.90
2024-02-26T18:23:39.717Z,6.90
2024-02-26T18:26:11.467Z,6.80
2024-02-26T18:28:44.526Z,6.80
2024-02-26T18:31:16.264Z,6.80
2024-02-26T18:33:48.186Z,6.80
2024-02-26T18:36:19.961Z,6.80
2024-02-26T18:38:51.724Z,6.80
2024-02-26T18:41:23.982Z,6.80
2024-02-26T18:43:57.198Z,6.80
2024-02-26T18:46:28.990Z,6.90
2024-02-26T18:49:00.834Z,6.90
2024-02-26T18:51:32.689Z,6.90
2024-02-26T18:54:04.912Z,6.90
2024-02-26T18:56:36.746Z,6.90
2024-02-26T18:59:09.806Z,6.90
2024-02-26T19:01:41.630Z,7.00
2024-02-26T19:04:13.680Z,7.00
2024-02-26T19:06:45.641Z,7.00
2024-02-26T19:11:50.032Z,7.00
2024-02-26T19:14:23.178Z,7.10
2024-02-26T19:16:54.872Z,7.10
2024-02-26T19:19:26.676Z,7.10
2024-02-26T19:21:58.443Z,7.10
2024-02-26T19:24:30.209Z,7.10
2024-02-26T19:27:01.972Z,7.10
2024-02-26T19:29:35.040Z,7.10
2024-02-26T19:32:07.609Z,7.10
2024-02-26T19:34:39.357Z,7.10
2024-02-26T19:37:11.417Z,7.10
2024-02-26T19:39:43.229Z,7.20
2024-02-26T19:42:14.960Z,7.20
2024-02-26T19:44:48.031Z,7.20
2024-02-26T19:47:20.118Z,7.20
2024-02-26T19:49:51.948Z,7.20
2024-02-26T19:52:23.765Z,7.20
2024-02-26T19:54:55.471Z,7.20
2024-02-26T19:57:27.270Z,7.20
2024-02-26T20:00:00.680Z,7.20
2024-02-26T20:02:32.486Z,7.30
2024-02-26T20:05:04.758Z,7.30
2024-02-26T20:07:36.486Z,7.40
2024-02-26T20:10:09.285Z,7.30
2024-02-26T20:12:41.126Z,7.30
2024-02-26T20:15:15.413Z,7.30
2024-02-26T20:17:47.241Z,7.30
2024-02-26T20:20:19.098Z,7.30
2024-02-26T20:22:51.001Z,7.40
2024-02-26T20:25:22.756Z,7.40
2024-02-26T20:27:54.530Z,7.40
2024-02-26T20:30:27.700Z,7.40
2024-02-26T20:32:59.504Z,7.40
2024-02-26T20:35:31.290Z,7.40
2024-02-26T20:38:03.134Z,7.40
2024-02-26T20:40:34.855Z,7.40
2024-02-26T20:43:06.641Z,7.50
2024-02-26T20:45:39.789Z,7.50
2024-02-26T20:48:11.734Z,7.50
2024-02-26T20:50:43.549Z,7.50
2024-02-26T20:53:15.250Z,7.50
2024-02-26T20:55:46.990Z,7.50
2024-02-26T20:58:18.768Z,7.50
2024-02-26T21:00:51.819Z,7.50
2024-02-26T21:03:23.640Z,7.50
2024-02-26T21:05:55.584Z,7.60
2024-02-26T21:08:36.553Z,7.50
2024-02-26T21:11:09.615Z,7.50
2024-02-26T21:13:41.405Z,7.50
2024-02-26T21:16:14.506Z,7.50
2024-02-26T21:18:46.402Z,7.50
2024-02-26T21:21:18.278Z,7.50
2024-02-26T21:23:50.083Z,7.50
2024-02-26T21:26:21.864Z,7.50
2024-02-26T21:28:53.642Z,7.50
2024-02-26T21:31:26.706Z,7.50
2024-02-26T21:33:58.633Z,7.50
2024-02-26T21:36:30.573Z,7.50
2024-02-26T21:39:02.451Z,7.50
2024-02-26T21:41:34.215Z,7.50
2024-02-26T21:44:05.972Z,7.50
2024-02-26T21:46:39.115Z,7.50
2024-02-26T21:49:10.996Z,7.60
2024-02-26T21:51:44.026Z,7.60
2024-02-26T21:54:15.993Z,7.60
2024-02-26T21:56:47.759Z,7.50
2024-02-26T21:59:19.567Z,7.50
2024-02-26T22:01:52.835Z,7.60
2024-02-26T22:04:24.629Z,7.60
2024-02-26T22:06:56.630Z,7.60
2024-02-26T22:09:28.501Z,7.60
2024-02-26T22:12:00.279Z,7.70
2024-02-26T22:14:32.003Z,7.70
2024-02-26T22:17:05.217Z,7.70
2024-02-26T22:19:36.991Z,7.70
2024-02-26T22:22:08.781Z,7.70
2024-02-26T22:24:40.570Z,7.60
2024-02-26T22:27:12.357Z,7.60
2024-02-26T22:29:44.159Z,7.60
2024-02-26T22:34:49.371Z,7.60
2024-02-26T22:37:21.150Z,7.50
2024-02-26T22:39:52.915Z,7.50
2024-02-26T22:42:24.755Z,7.50
2024-02-26T22:44:56.492Z,7.50
2024-02-26T22:47:29.645Z,7.50
2024-02-26T22:50:01.468Z,7.50
2024-02-26T22:52:33.251Z,7.60
2024-02-26T22:55:05.905Z,7.70
2024-02-26T22:57:37.687Z,7.80
